BIAR Airport Information

Runway Information
Runway 01 Length 6365 ft width 148 ft
Elevation 7 ft Threshold 0 ft Heading 355
Runway 19 Length 6365 ft Width 148 ft
Elevation 5 ft Threshold 0 ft Heading 175
Airport Frequencies
Type ACC Name REYKJAVIK Frequency 119.7 MHZ
Type RDR Name RADAR Frequency 118.7 MHZ
Type TWR Name TWR Frequency 118.2 MHZ
Airport Navaids
Type VOR-DME Name Akureyri Frequency 113600 KHZ
Type NDB Name Akureyri Frequency 334 KHZ
Type NDB Name Hjalteyri Frequency 319 KHZ
Type NDB Name Hvammur Frequency 357 KHZ
Type NDB Name Botn Frequency 387 KHZ
Type NDB Name Torfur Frequency 324 KHZ
Airport Weather Information & NOTAM
ADDS - METARS form results

(1902 UTC 11 May 2021)
Data provider http://aviationweather.gov/metar/data/
 
Forecast for: BIAR (AKUREYRI , IS)
Text: TAF BIAR 111602Z 1118/1218 15007KT CAVOK TX05/1118Z TNM03/1204Z
Forecast period: 1800 UTC 11 May 2021 to 1800 UTC 12 May 2021
Forecast type: FROM: standard forecast or significant change
Winds: from the SSE (150 degrees) at 8 MPH (7 knots; 3.6 m/s)
Visibility: 6 or more miles (10+ km)
Ceiling: unknown
Clouds: missing
Weather: no significant weather forecast for this period